Time;durP1;ratioP1;P1;durP2;ratioP2;P2;SDS_P1;SDS_P2;PMS_P1;PMS_P2;Temp;Humidity;BMP_temperature;BMP_pressure;BME280_temperature;BME280_humidity;BME280_pressure;Samples;Min_cycle;Max_cycle;Signal;HPM_P1;HPM_P2
2022/03/05 00:02:02;;;;;;;32.83;15.97;;;;;;;-0.72;66.74;95544.06;1825940;78;20986;-67
2022/03/05 00:04:28;;;;;;;28.00;16.20;;;;;;;-0.60;66.74;95550.39;1826004;78;21058;-67
2022/03/05 00:06:55;;;;;;;32.20;16.83;;;;;;;-0.60;66.49;95542.20;1826320;78;21013;-67
2022/03/05 00:09:21;;;;;;;29.60;16.27;;;;;;;-0.62;66.87;95549.48;1826252;78;20979;-66
2022/03/05 00:11:49;;;;;;;31.97;17.03;;;;;;;-0.61;66.68;95549.92;1826054;78;21002;-66
2022/03/05 00:14:15;;;;;;;30.37;16.33;;;;;;;-0.54;66.45;95546.64;1826440;78;20986;-66
2022/03/05 00:16:42;;;;;;;35.37;18.57;;;;;;;-0.56;66.70;95544.00;1825583;78;21017;-66
2022/03/05 00:19:09;;;;;;;42.67;19.57;;;;;;;-0.64;67.91;95546.84;1826389;78;20927;-66
2022/03/05 00:21:35;;;;;;;44.13;21.23;;;;;;;-0.61;68.17;95546.91;1826140;78;21037;-66
2022/03/05 00:24:03;;;;;;;47.63;24.00;;;;;;;-0.53;68.29;95545.78;1826008;78;21005;-66
2022/03/05 00:26:30;;;;;;;46.13;23.97;;;;;;;-0.53;68.08;95541.50;1825954;78;21568;-66
2022/03/05 00:28:56;;;;;;;49.77;23.27;;;;;;;-0.61;67.49;95543.44;1826160;78;21465;-66
2022/03/05 00:31:23;;;;;;;43.87;22.27;;;;;;;-0.69;68.34;95537.66;1825944;78;21053;-67
2022/03/05 00:33:49;;;;;;;39.03;19.77;;;;;;;-0.75;68.46;95536.23;1826209;78;20970;-67
2022/03/05 00:36:16;;;;;;;36.40;18.30;;;;;;;-0.80;68.72;95536.54;1828322;78;20975;-67
2022/03/05 00:38:43;;;;;;;42.00;19.13;;;;;;;-0.87;68.63;95532.05;1831677;78;21034;-66
2022/03/05 00:41:10;;;;;;;36.67;18.10;;;;;;;-0.92;68.50;95529.77;1831808;78;21013;-67
2022/03/05 00:43:37;;;;;;;36.37;18.10;;;;;;;-0.96;68.95;95529.22;1831556;78;21017;-66
2022/03/05 00:46:04;;;;;;;34.57;17.27;;;;;;;-1.00;70.43;95533.47;1831805;78;21053;-67
2022/03/05 00:48:31;;;;;;;31.57;17.17;;;;;;;-1.04;70.28;95529.03;1831535;78;21021;-66
2022/03/05 00:50:57;;;;;;;30.40;17.50;;;;;;;-0.95;69.83;95533.16;1832144;78;21461;-66
2022/03/05 00:53:24;;;;;;;33.93;17.30;;;;;;;-0.96;70.18;95527.53;1831972;78;21073;-66
2022/03/05 00:55:50;;;;;;;41.73;19.70;;;;;;;-0.98;70.45;95531.80;1831969;78;21013;-66
2022/03/05 00:58:17;;;;;;;44.80;21.73;;;;;;;-1.01;70.89;95529.10;1831451;78;21476;-67
2022/03/05 01:00:44;;;;;;;45.13;24.37;;;;;;;-0.94;70.57;95527.13;1831932;78;21002;-66
2022/03/05 01:03:10;;;;;;;49.27;23.93;;;;;;;-0.79;70.11;95535.69;1831894;78;21013;-66
2022/03/05 01:05:36;;;;;;;44.70;22.90;;;;;;;-0.74;69.46;95531.48;1831524;78;21120;-66
2022/03/05 01:08:04;;;;;;;41.30;21.03;;;;;;;-0.74;69.93;95532.78;1832035;78;21073;-66
2022/03/05 01:10:31;;;;;;;38.17;19.73;;;;;;;-0.82;69.82;95533.45;1831915;78;20974;-66
2022/03/05 01:12:57;;;;;;;41.43;20.33;;;;;;;-0.92;70.67;95533.22;1831941;78;21041;-66
2022/03/05 01:15:24;;;;;;;37.30;18.47;;;;;;;-0.99;70.80;95533.91;1831898;78;21050;-67
2022/03/05 01:17:51;;;;;;;35.27;17.87;;;;;;;-1.00;70.22;95533.89;1831452;78;21045;-66
2022/03/05 01:20:17;;;;;;;30.20;17.43;;;;;;;-0.96;70.30;95535.70;1831443;78;21044;-66
2022/03/05 01:22:44;;;;;;;30.37;16.07;;;;;;;-0.87;69.97;95534.21;1831589;78;20982;-66
2022/03/05 01:25:10;;;;;;;27.93;15.07;;;;;;;-0.76;69.97;95527.11;1831512;78;21023;-66
2022/03/05 01:27:37;;;;;;;32.53;17.67;;;;;;;-0.80;69.98;95533.95;1831465;78;21114;-67
2022/03/05 01:30:05;;;;;;;32.27;17.70;;;;;;;-0.85;70.23;95532.97;1832048;78;21014;-66
2022/03/05 01:32:32;;;;;;;35.10;16.40;;;;;;;-0.88;70.38;95531.17;1831824;78;21456;-66
2022/03/05 01:34:59;;;;;;;31.40;16.90;;;;;;;-0.85;70.21;95529.50;1831906;78;21472;-66
2022/03/05 01:37:25;;;;;;;32.63;16.83;;;;;;;-0.84;70.28;95529.52;1827593;78;21077;-66
2022/03/05 01:39:52;;;;;;;31.47;16.33;;;;;;;-0.89;69.97;95534.59;1826185;78;20947;-66
2022/03/05 01:42:21;;;;;;;32.77;17.00;;;;;;;-0.99;70.52;95535.63;1825689;79;21010;-66
2022/03/05 01:44:47;;;;;;;32.97;17.83;;;;;;;-1.01;70.67;95535.58;1826288;78;20990;-66
2022/03/05 01:47:14;;;;;;;30.07;16.50;;;;;;;-1.07;70.15;95527.67;1825569;79;21085;-66
2022/03/05 01:49:42;;;;;;;33.87;16.90;;;;;;;-1.06;70.04;95529.41;1825984;78;21006;-66
2022/03/05 01:52:09;;;;;;;30.97;15.50;;;;;;;-1.05;70.38;95536.78;1825960;78;21002;-66
2022/03/05 01:54:36;;;;;;;29.67;16.97;;;;;;;-1.12;70.59;95531.86;1826086;78;21547;-67
2022/03/05 01:57:04;;;;;;;28.33;14.70;;;;;;;-1.15;70.53;95534.37;1825943;78;21066;-66
2022/03/05 01:59:31;;;;;;;33.57;16.43;;;;;;;-1.16;70.64;95537.78;1826430;78;21002;-67
2022/03/05 02:01:57;;;;;;;38.20;20.13;;;;;;;-1.14;71.28;95540.88;1825658;78;21571;-67
2022/03/05 02:04:24;;;;;;;37.73;19.30;;;;;;;-1.10;72.05;95532.36;1826132;78;21003;-67
2022/03/05 02:06:54;;;;;;;36.20;17.80;;;;;;;-1.07;72.13;95535.86;1826153;78;21097;-67
2022/03/05 02:09:21;;;;;;;34.03;17.70;;;;;;;-1.03;71.81;95537.28;1826042;78;20982;-67
2022/03/05 02:11:48;;;;;;;33.60;18.13;;;;;;;-1.02;71.71;95537.72;1825925;78;21101;-67
2022/03/05 02:14:19;;;;;;;33.97;17.67;;;;;;;-1.07;71.64;95530.26;1826330;78;20980;-66
2022/03/05 02:16:47;;;;;;;33.33;16.93;;;;;;;-1.08;71.71;95531.11;1826030;78;20997;-69
2022/03/05 02:19:14;;;;;;;38.07;18.63;;;;;;;-1.06;72.00;95535.02;1826483;78;20966;-66
2022/03/05 02:21:45;;;;;;;29.97;17.40;;;;;;;-0.93;71.79;95534.50;1825892;78;21532;-66
2022/03/05 02:24:13;;;;;;;31.63;16.97;;;;;;;-0.85;70.95;95527.78;1826238;78;20975;-66
2022/03/05 02:26:39;;;;;;;32.33;15.67;;;;;;;-0.85;70.77;95532.09;1826135;78;21021;-66
2022/03/05 02:29:06;;;;;;;29.70;15.57;;;;;;;-0.87;70.67;95532.91;1825893;78;21025;-66
2022/03/05 02:31:33;;;;;;;31.17;16.67;;;;;;;-0.93;70.75;95535.37;1826157;78;21002;-66
2022/03/05 02:34:00;;;;;;;35.00;16.93;;;;;;;-0.95;70.73;95530.99;1825783;78;21014;-66
2022/03/05 02:36:27;;;;;;;28.90;16.10;;;;;;;-0.97;71.08;95534.83;1825007;78;21500;-67
2022/03/05 02:38:54;;;;;;;30.23;15.90;;;;;;;-0.95;71.08;95529.70;1820953;79;21516;-66
2022/03/05 02:41:21;;;;;;;36.77;17.20;;;;;;;-0.96;71.20;95534.01;1821251;79;20967;-66
2022/03/05 02:43:47;;;;;;;35.27;16.53;;;;;;;-0.87;70.91;95533.34;1821385;79;21006;-67
2022/03/05 02:46:14;;;;;;;34.40;16.73;;;;;;;-0.95;70.36;95537.47;1821310;79;21025;-67
2022/03/05 02:48:42;;;;;;;29.00;15.77;;;;;;;-1.05;70.45;95534.20;1821114;79;20974;-67
2022/03/05 02:51:08;;;;;;;31.07;17.00;;;;;;;-1.09;70.57;95537.98;1821179;79;21516;-67
2022/03/05 02:53:35;;;;;;;28.37;16.07;;;;;;;-1.12;70.67;95538.33;1821250;79;21061;-67
2022/03/05 02:56:04;;;;;;;34.50;17.50;;;;;;;-1.09;71.31;95540.56;1821306;79;21079;-67
2022/03/05 02:58:30;;;;;;;34.73;18.37;;;;;;;-1.03;71.36;95538.58;1821299;79;21448;-66
2022/03/05 03:00:57;;;;;;;32.87;16.10;;;;;;;-0.94;71.09;95535.32;1820895;79;21089;-66
2022/03/05 03:03:23;;;;;;;33.27;17.33;;;;;;;-0.85;71.07;95529.50;1821251;79;21002;-66
2022/03/05 03:05:50;;;;;;;27.77;15.97;;;;;;;-0.90;70.84;95530.26;1821126;79;21491;-66
2022/03/05 03:08:16;;;;;;;34.63;17.47;;;;;;;-1.06;71.36;95535.02;1821307;79;21037;-66
2022/03/05 03:10:43;;;;;;;34.47;17.37;;;;;;;-1.13;71.35;95539.19;1821403;79;21500;-66
2022/03/05 03:13:11;;;;;;;30.03;16.70;;;;;;;-1.16;71.50;95539.08;1821152;79;21491;-66
2022/03/05 03:15:37;;;;;;;30.97;16.50;;;;;;;-1.10;71.56;95534.94;1821316;79;20999;-66
2022/03/05 03:18:04;;;;;;;35.13;17.23;;;;;;;-1.07;70.82;95534.56;1821037;79;21097;-66
2022/03/05 03:20:31;;;;;;;32.00;18.40;;;;;;;-1.13;71.07;95533.58;1821149;79;21006;-66
2022/03/05 03:23:00;;;;;;;36.20;18.30;;;;;;;-1.20;70.86;95532.97;1821333;79;21033;-66
2022/03/05 03:25:26;;;;;;;36.80;18.23;;;;;;;-1.15;71.11;95536.97;1821332;79;20993;-67
2022/03/05 03:27:53;;;;;;;34.50;17.37;;;;;;;-1.16;71.14;95537.39;1820846;79;21038;-67
2022/03/05 03:30:20;;;;;;;33.43;16.87;;;;;;;-1.19;70.75;95536.42;1821170;79;21010;-67
2022/03/05 03:32:48;;;;;;;31.70;16.87;;;;;;;-1.16;71.21;95536.10;1820826;79;21006;-67
2022/03/05 03:35:16;;;;;;;31.47;17.13;;;;;;;-1.04;71.46;95535.94;1821164;79;21033;-67
2022/03/05 03:37:45;;;;;;;33.17;17.67;;;;;;;-0.94;71.37;95540.08;1823890;78;21117;-67
2022/03/05 03:40:15;;;;;;;30.90;16.20;;;;;;;-0.84;70.77;95546.78;1826005;78;21074;-67
2022/03/05 03:42:45;;;;;;;34.47;16.40;;;;;;;-0.83;70.90;95544.24;1826226;78;20989;-66
2022/03/05 03:45:12;;;;;;;32.97;17.13;;;;;;;-0.82;70.33;95542.09;1826100;78;21536;-66
2022/03/05 03:47:42;;;;;;;32.70;17.27;;;;;;;-0.81;70.55;95544.27;1825791;78;21075;-66
2022/03/05 03:50:12;;;;;;;34.27;17.60;;;;;;;-0.77;70.33;95543.08;1826130;78;20994;-66
2022/03/05 03:52:40;;;;;;;35.47;18.23;;;;;;;-0.80;71.08;95549.92;1826183;78;21010;-66
2022/03/05 03:55:11;;;;;;;35.93;19.00;;;;;;;-0.87;72.01;95552.34;1825994;78;21510;-66
2022/03/05 03:57:39;;;;;;;33.97;18.60;;;;;;;-0.97;72.53;95549.50;1826140;78;21041;-67
2022/03/05 04:00:10;;;;;;;33.93;18.17;;;;;;;-0.94;72.85;95543.95;1826519;78;20989;-66
2022/03/05 04:02:40;;;;;;;36.85;18.42;;;;;;;-0.80;72.42;95555.97;1826019;78;21033;-67
2022/03/05 04:05:09;;;;;;;35.10;18.67;;;;;;;-0.73;71.99;95555.67;1826071;78;21001;-66
2022/03/05 04:10:21;;;;;;;36.00;18.37;;;;;;;-0.78;71.89;95557.28;1826296;78;20991;-66
2022/03/05 04:12:48;;;;;;;32.27;18.03;;;;;;;-0.78;71.98;95559.48;1825936;78;21120;-66
2022/03/05 04:15:16;;;;;;;32.97;17.77;;;;;;;-0.71;71.76;95563.94;1825915;78;21005;-67
2022/03/05 04:17:43;;;;;;;37.43;19.20;;;;;;;-0.72;71.92;95566.52;1826064;78;20971;-67
2022/03/05 04:20:11;;;;;;;39.13;18.83;;;;;;;-0.75;71.54;95571.63;1825887;78;20962;-67
2022/03/05 04:22:37;;;;;;;34.17;18.20;;;;;;;-0.77;71.45;95572.01;1825963;78;21583;-67
2022/03/05 04:25:05;;;;;;;32.60;17.57;;;;;;;-0.77;71.44;95571.58;1826078;78;20991;-67
2022/03/05 04:27:32;;;;;;;46.67;24.57;;;;;;;-0.82;71.70;95574.48;1825883;78;21053;-66
2022/03/05 04:29:58;;;;;;;47.33;22.90;;;;;;;-0.85;72.56;95571.82;1825971;78;21057;-67
2022/03/05 04:32:25;;;;;;;45.90;23.37;;;;;;;-0.78;72.83;95579.30;1826033;78;21109;-66
2022/03/05 04:34:52;;;;;;;46.33;23.00;;;;;;;-0.78;72.96;95586.68;1826028;78;21488;-66
2022/03/05 04:37:19;;;;;;;42.43;22.00;;;;;;;-0.70;72.87;95579.09;1825624;78;21083;-66
2022/03/05 04:39:45;;;;;;;43.53;21.47;;;;;;;-0.65;72.75;95578.78;1826276;78;20995;-66
2022/03/05 04:42:12;;;;;;;42.23;20.70;;;;;;;-0.61;72.52;95575.41;1826140;78;21046;-66
2022/03/05 04:44:38;;;;;;;39.63;20.97;;;;;;;-0.57;72.66;95581.13;1825695;78;21059;-66
2022/03/05 04:47:05;;;;;;;38.37;21.53;;;;;;;-0.52;72.58;95580.82;1826133;78;21480;-66
2022/03/05 04:49:32;;;;;;;37.47;20.97;;;;;;;-0.50;72.31;95580.44;1825874;78;21002;-66
2022/03/05 04:51:58;;;;;;;46.77;23.30;;;;;;;-0.51;72.06;95582.98;1825660;78;21074;-66
2022/03/05 04:54:29;;;;;;;49.80;24.40;;;;;;;-0.58;72.17;95587.56;1826416;78;20975;-67
2022/03/05 04:56:53;;;;;;;47.03;24.03;;;;;;;-0.59;72.15;95589.71;1826220;78;20975;-67
2022/03/05 04:59:20;;;;;;;38.23;20.73;;;;;;;-0.63;72.05;95587.48;1826198;78;20974;-66
2022/03/05 05:01:46;;;;;;;37.80;20.37;;;;;;;-0.63;72.05;95593.05;1825791;78;21041;-66
2022/03/05 05:04:13;;;;;;;40.07;20.63;;;;;;;-0.68;72.05;95589.95;1825864;78;21531;-67
2022/03/05 05:06:39;;;;;;;37.80;21.00;;;;;;;-0.70;71.88;95597.23;1826331;78;20974;-67
2022/03/05 05:09:06;;;;;;;36.23;20.80;;;;;;;-0.77;71.92;95596.62;1826243;78;20955;-67
2022/03/05 05:11:33;;;;;;;37.90;20.40;;;;;;;-0.74;72.18;95598.84;1825922;78;21078;-66
2022/03/05 05:14:00;;;;;;;39.23;20.17;;;;;;;-0.73;72.16;95601.02;1826357;78;21003;-66
2022/03/05 05:16:27;;;;;;;38.70;20.47;;;;;;;-0.77;72.12;95601.80;1825851;79;21018;-66
2022/03/05 05:21:39;;;;;;;36.37;20.80;;;;;;;-0.87;72.81;95610.63;1826396;78;20991;-66
2022/03/05 05:24:06;;;;;;;36.80;20.27;;;;;;;-0.93;73.97;95600.55;1826189;78;20963;-66
2022/03/05 05:26:32;;;;;;;40.63;21.30;;;;;;;-0.95;73.99;95600.92;1826074;78;20970;-66
2022/03/05 05:28:59;;;;;;;37.50;21.17;;;;;;;-0.86;74.01;95603.72;1825957;78;21528;-66
2022/03/05 05:31:26;;;;;;;35.87;19.67;;;;;;;-0.81;74.02;95603.42;1826270;78;21041;-66
2022/03/05 05:33:52;;;;;;;39.17;21.47;;;;;;;-0.83;74.07;95607.71;1825824;78;21010;-67
2022/03/05 05:36:19;;;;;;;39.27;20.33;;;;;;;-0.81;74.00;95605.14;1826156;78;21010;-66
2022/03/05 05:38:46;;;;;;;40.50;22.43;;;;;;;-0.83;73.88;95607.71;1821975;78;21050;-67
2022/03/05 05:41:14;;;;;;;39.50;22.93;;;;;;;-0.81;74.10;95603.84;1821326;79;20962;-67
2022/03/05 05:43:41;;;;;;;41.83;22.43;;;;;;;-0.71;74.19;95600.21;1821323;79;21003;-66
2022/03/05 05:46:08;;;;;;;43.77;22.87;;;;;;;-0.61;73.42;95605.20;1821142;79;21114;-66
2022/03/05 05:48:34;;;;;;;38.13;20.87;;;;;;;-0.57;73.19;95608.34;1821117;79;21007;-67
2022/03/05 05:51:01;;;;;;;40.40;20.83;;;;;;;-0.59;73.06;95610.02;1821359;79;20982;-67
2022/03/05 05:53:28;;;;;;;37.77;19.53;;;;;;;-0.65;72.51;95612.47;1821235;79;21467;-66
2022/03/05 05:55:56;;;;;;;32.57;18.67;;;;;;;-0.71;72.13;95618.35;1821283;79;21018;-66
2022/03/05 05:58:23;;;;;;;45.70;23.23;;;;;;;-0.76;71.85;95623.84;1820971;79;20994;-66
2022/03/05 06:00:50;;;;;;;43.27;23.10;;;;;;;-0.75;72.69;95618.27;1821143;79;21074;-66
2022/03/05 06:03:17;;;;;;;52.13;26.50;;;;;;;-0.62;72.99;95624.20;1820818;79;20979;-73
2022/03/05 06:05:43;;;;;;;62.47;32.97;;;;;;;-0.48;72.91;95622.83;1821305;79;21058;-66
2022/03/05 06:08:10;;;;;;;71.87;36.53;;;;;;;-0.36;72.67;95626.54;1820794;79;20998;-66
2022/03/05 06:10:37;;;;;;;66.30;34.63;;;;;;;-0.27;72.57;95622.45;1821234;79;21054;-66
2022/03/05 06:13:03;;;;;;;66.00;32.20;;;;;;;-0.16;72.36;95621.82;1820998;79;21002;-66
2022/03/05 06:15:30;;;;;;;51.30;26.90;;;;;;;-0.13;71.83;95627.07;1821129;79;21014;-66
2022/03/05 06:17:57;;;;;;;50.37;28.07;;;;;;;-0.13;71.45;95630.53;1821324;79;20954;-67
2022/03/05 06:20:25;;;;;;;50.17;26.50;;;;;;;-0.19;71.70;95626.95;1821198;79;21072;-67
2022/03/05 06:22:51;;;;;;;47.73;25.07;;;;;;;-0.22;71.68;95633.80;1820876;79;21051;-66
2022/03/05 06:25:19;;;;;;;46.00;24.17;;;;;;;-0.15;71.43;95630.95;1821594;79;20975;-67
2022/03/05 06:27:46;;;;;;;44.73;24.33;;;;;;;-0.09;70.89;95632.80;1821362;79;21512;-67
2022/03/05 06:30:12;;;;;;;38.53;22.20;;;;;;;-0.07;70.71;95635.01;1821534;79;21025;-67
2022/03/05 06:32:39;;;;;;;42.83;21.23;;;;;;;-0.05;70.03;95631.61;1821274;79;21074;-67
2022/03/05 06:35:07;;;;;;;39.33;20.43;;;;;;;0.01;69.98;95628.27;1821115;79;20951;-67
2022/03/05 06:37:34;;;;;;;39.90;20.87;;;;;;;0.02;69.33;95637.80;1822081;78;21045;-66
2022/03/05 06:40:02;;;;;;;36.10;20.27;;;;;;;0.06;69.31;95641.34;1825885;78;21052;-66
2022/03/05 06:42:29;;;;;;;37.40;19.77;;;;;;;0.03;69.40;95640.86;1826057;78;20946;-66
2022/03/05 06:44:56;;;;;;;41.43;21.83;;;;;;;0.00;69.54;95645.98;1826236;78;21484;-67
2022/03/05 06:47:22;;;;;;;37.97;21.33;;;;;;;0.04;69.68;95647.78;1826176;78;21026;-66
2022/03/05 06:49:49;;;;;;;34.97;20.90;;;;;;;0.04;70.32;95654.27;1825452;78;20983;-66
2022/03/05 06:52:16;;;;;;;38.90;21.00;;;;;;;0.03;70.03;95652.53;1825873;78;21091;-66
2022/03/05 06:54:43;;;;;;;34.13;18.73;;;;;;;0.10;70.26;95647.94;1825859;78;20986;-66
2022/03/05 06:57:10;;;;;;;39.53;23.17;;;;;;;0.26;69.56;95653.04;1826144;78;20986;-66
2022/03/05 06:59:36;;;;;;;43.37;24.37;;;;;;;0.36;69.48;95652.82;1826125;78;20978;-66
2022/03/05 07:02:03;;;;;;;38.57;21.40;;;;;;;0.45;68.57;95656.02;1826201;78;21503;-66
2022/03/05 07:04:30;;;;;;;51.77;29.27;;;;;;;0.46;67.79;95659.09;1826054;78;21416;-67
2022/03/05 07:06:57;;;;;;;43.03;25.73;;;;;;;0.48;67.83;95648.29;1825824;78;21061;-66
2022/03/05 07:09:23;;;;;;;49.27;27.13;;;;;;;0.46;68.02;95654.77;1826447;78;21025;-66
2022/03/05 07:11:50;;;;;;;63.83;37.37;;;;;;;0.47;67.92;95654.34;1825901;78;20991;-67
2022/03/05 07:14:17;;;;;;;44.80;25.67;;;;;;;0.48;67.89;95661.27;1826242;78;21042;-67
2022/03/05 07:16:43;;;;;;;36.03;20.33;;;;;;;0.54;68.29;95662.29;1825855;78;21097;-67
2022/03/05 07:19:10;;;;;;;42.63;22.37;;;;;;;0.59;68.61;95666.28;1825992;78;20974;-66
2022/03/05 07:21:37;;;;;;;34.83;20.83;;;;;;;0.67;68.78;95661.25;1826311;78;20971;-66
2022/03/05 07:24:05;;;;;;;38.97;22.13;;;;;;;0.71;68.51;95663.08;1826117;78;21033;-66
2022/03/05 07:26:31;;;;;;;39.87;21.83;;;;;;;0.80;68.54;95665.41;1826094;78;21010;-67
2022/03/05 07:28:58;;;;;;;38.90;21.57;;;;;;;0.88;68.25;95667.28;1826169;78;20974;-66
2022/03/05 07:31:24;;;;;;;42.83;22.47;;;;;;;0.92;68.17;95664.78;1825832;78;20990;-66
2022/03/05 07:33:51;;;;;;;44.77;23.10;;;;;;;0.99;68.55;95669.25;1826013;78;21504;-68
2022/03/05 07:36:19;;;;;;;40.17;21.80;;;;;;;1.06;68.28;95662.47;1826158;78;21073;-66
2022/03/05 07:38:46;;;;;;;39.50;20.70;;;;;;;1.11;68.38;95659.53;1829211;78;20990;-66
2022/03/05 07:41:13;;;;;;;29.43;16.33;;;;;;;1.18;67.98;95664.40;1831961;78;21045;-66
2022/03/05 07:43:41;;;;;;;36.80;17.23;;;;;;;1.15;67.79;95660.45;1831960;78;21468;-66
2022/03/05 07:46:07;;;;;;;31.07;16.77;;;;;;;1.25;67.92;95660.64;1831810;78;21069;-67
2022/03/05 07:48:33;;;;;;;34.17;19.33;;;;;;;1.29;67.21;95658.98;1832161;78;20966;-67
2022/03/05 07:51:02;;;;;;;31.77;17.27;;;;;;;1.39;67.82;95667.83;1831537;78;21070;-67
2022/03/05 07:53:31;;;;;;;30.77;17.23;;;;;;;1.49;67.71;95666.72;1831737;78;20994;-67
2022/03/05 07:55:59;;;;;;;31.23;18.13;;;;;;;1.66;67.38;95663.51;1832446;78;20974;-67
2022/03/05 07:58:26;;;;;;;28.70;17.40;;;;;;;1.88;67.23;95669.52;1831889;78;21121;-67
2022/03/05 08:00:53;;;;;;;29.33;16.83;;;;;;;2.00;66.69;95667.97;1831981;78;20966;-67
2022/03/05 08:03:19;;;;;;;30.53;17.83;;;;;;;2.12;66.88;95672.07;1832109;78;20986;-67
2022/03/05 08:05:46;;;;;;;28.73;16.87;;;;;;;2.04;67.94;95669.35;1831748;78;21575;-67
2022/03/05 08:08:12;;;;;;;34.27;19.23;;;;;;;2.06;68.01;95668.92;1832010;78;21006;-67
2022/03/05 08:10:39;;;;;;;31.47;18.93;;;;;;;2.09;68.47;95672.90;1831861;78;20994;-66
2022/03/05 08:13:06;;;;;;;34.77;18.83;;;;;;;2.21;68.59;95670.02;1831939;78;21018;-66
2022/03/05 08:15:32;;;;;;;27.30;14.63;;;;;;;2.41;67.74;95667.27;1831778;78;20966;-66
2022/03/05 08:18:01;;;;;;;33.37;18.60;;;;;;;2.51;66.86;95670.45;1831730;78;21065;-66
2022/03/05 08:20:31;;;;;;;30.53;17.20;;;;;;;2.72;67.61;95670.27;1831700;78;20970;-66
2022/03/05 08:22:58;;;;;;;30.47;16.90;;;;;;;2.72;67.39;95676.79;1831876;78;21005;-66
2022/03/05 08:25:26;;;;;;;33.20;18.20;;;;;;;2.87;69.37;95674.38;1831912;78;21495;-67
2022/03/05 08:27:53;;;;;;;34.07;18.93;;;;;;;3.09;67.32;95673.34;1831597;78;20998;-66
2022/03/05 08:30:22;;;;;;;30.67;17.27;;;;;;;3.27;66.98;95674.84;1832181;78;21006;-67
2022/03/05 08:32:49;;;;;;;31.43;17.20;;;;;;;3.41;67.17;95671.09;1831978;78;21480;-67
2022/03/05 08:35:18;;;;;;;34.03;19.37;;;;;;;3.58;66.45;95669.93;1831329;78;21122;-67
2022/03/05 08:37:45;;;;;;;32.80;18.67;;;;;;;3.75;67.06;95675.31;1831616;78;21049;-67
2022/03/05 08:40:14;;;;;;;33.07;18.53;;;;;;;3.96;65.83;95675.95;1807985;78;21023;-67
2022/03/05 08:42:43;;;;;;;32.80;18.63;;;;;;;4.06;64.40;95676.03;1799509;79;21105;-67
2022/03/05 08:45:11;;;;;;;31.47;17.90;;;;;;;4.04;64.94;95673.83;1799301;79;21535;-67
2022/03/05 08:47:38;;;;;;;28.47;16.40;;;;;;;4.11;65.06;95673.46;1759048;81;21089;-67
2022/03/05 08:50:07;;;;;;;27.33;16.33;;;;;;;4.05;64.74;95676.00;1741983;82;21035;-67
2022/03/05 08:52:37;;;;;;;29.53;16.57;;;;;;;4.02;63.62;95675.98;1759170;81;21060;-66
2022/03/05 08:55:07;;;;;;;32.00;18.33;;;;;;;3.91;62.25;95679.83;1742512;82;21027;-66
2022/03/05 08:57:34;;;;;;;31.70;18.80;;;;;;;3.83;61.86;95680.16;1758629;81;21459;-66
2022/03/05 09:00:02;;;;;;;29.90;19.20;;;;;;;3.84;62.88;95676.72;1742667;82;21004;-66
2022/03/05 09:02:30;;;;;;;31.10;18.17;;;;;;;3.82;64.24;95677.13;1758704;81;21013;-66
2022/03/05 09:04:57;;;;;;;30.30;16.63;;;;;;;3.98;65.82;95680.33;1742488;82;21019;-66
2022/03/05 09:07:23;;;;;;;34.07;18.20;;;;;;;4.24;64.40;95677.03;1758788;81;21484;-66
2022/03/05 09:09:50;;;;;;;30.50;19.03;;;;;;;4.48;63.95;95671.95;1742435;82;21082;-66
2022/03/05 09:12:17;;;;;;;34.50;18.87;;;;;;;4.75;63.18;95671.67;1758935;82;21077;-67
2022/03/05 09:14:46;;;;;;;30.50;18.10;;;;;;;4.98;61.52;95674.39;1742494;82;21039;-67
2022/03/05 09:17:13;;;;;;;26.37;16.70;;;;;;;5.17;61.54;95667.51;1758905;82;20989;-67
2022/03/05 09:19:40;;;;;;;26.87;17.63;;;;;;;5.23;59.50;95672.75;1742040;82;21058;-67
2022/03/05 09:22:09;;;;;;;29.63;16.77;;;;;;;5.34;59.29;95671.46;1759085;82;20981;-66
2022/03/05 09:24:36;;;;;;;30.87;18.23;;;;;;;5.42;59.91;95670.63;1742157;82;21111;-67
2022/03/05 09:27:04;;;;;;;27.10;16.83;;;;;;;5.42;58.07;95670.63;1758782;82;21109;-67
2022/03/05 09:29:31;;;;;;;26.33;17.47;;;;;;;5.40;56.36;95674.11;1742517;82;20984;-67
2022/03/05 09:31:58;;;;;;;26.93;16.93;;;;;;;5.58;56.87;95674.59;1758880;82;21006;-67
2022/03/05 09:34:25;;;;;;;24.83;16.27;;;;;;;5.82;57.50;95677.25;1742568;82;21548;-67
2022/03/05 09:36:52;;;;;;;27.07;15.57;;;;;;;6.02;58.74;95677.30;1758874;82;21069;-67
2022/03/05 09:39:19;;;;;;;25.53;15.13;;;;;;;6.27;58.48;95678.59;1748133;82;21078;-67
2022/03/05 09:41:46;;;;;;;24.17;15.27;;;;;;;6.35;57.30;95671.61;1781493;80;21058;-66
2022/03/05 09:44:13;;;;;;;22.40;14.67;;;;;;;6.29;56.13;95671.60;1768907;81;21058;-66
2022/03/05 09:46:41;;;;;;;24.37;16.20;;;;;;;6.43;56.78;95675.53;1768429;81;21034;-66
2022/03/05 09:49:10;;;;;;;25.70;15.10;;;;;;;6.67;56.44;95675.47;1768224;81;21022;-66
2022/03/05 09:51:37;;;;;;;23.57;15.03;;;;;;;6.87;55.26;95679.36;1781560;80;20999;-67
2022/03/05 09:54:04;;;;;;;24.00;14.77;;;;;;;7.05;53.90;95678.42;1769439;81;20995;-70
2022/03/05 09:56:31;;;;;;;22.63;13.13;;;;;;;7.18;54.02;95680.55;1768390;81;21010;-66
2022/03/05 09:58:58;;;;;;;23.10;15.40;;;;;;;7.16;52.82;95678.41;1768121;81;21576;-67
2022/03/05 10:01:25;;;;;;;23.10;14.93;;;;;;;6.77;51.77;95680.70;1781583;80;21027;-67
2022/03/05 10:03:55;;;;;;;21.83;14.40;;;;;;;6.24;53.12;95686.45;1769234;81;21031;-67
2022/03/05 10:06:29;;;;;;;27.60;16.93;;;;;;;6.36;53.51;95680.34;1768218;81;21025;-67
2022/03/05 10:08:56;;;;;;;25.40;14.80;;;;;;;6.04;53.64;95688.63;1781925;80;21497;-67
2022/03/05 10:11:25;;;;;;;24.50;14.83;;;;;;;5.62;54.66;95689.44;1769435;81;20976;-67
2022/03/05 10:13:52;;;;;;;21.57;14.03;;;;;;;5.38;54.80;95687.18;1728556;82;20995;-67
2022/03/05 10:16:33;;;;;;;24.83;14.90;;;;;;;5.74;55.64;95684.64;1781650;80;20975;-67
2022/03/05 10:19:22;;;;;;;23.27;13.87;;;;;;;6.11;54.35;95681.66;1782053;80;20983;-66
2022/03/05 10:22:04;;;;;;;26.13;15.47;;;;;;;6.33;54.01;95677.73;1781582;80;21053;-66
2022/03/05 10:24:38;;;;;;;25.03;13.93;;;;;;;6.64;52.56;95675.48;1781961;80;20991;-67
2022/03/05 10:27:09;;;;;;;24.37;15.27;;;;;;;6.67;53.66;95679.41;1781107;80;20991;-66
2022/03/05 10:29:39;;;;;;;21.93;14.03;;;;;;;6.40;52.29;95679.03;1782044;80;20951;-66
2022/03/05 10:32:09;;;;;;;24.20;14.57;;;;;;;6.29;52.19;95681.64;1781915;80;20995;-66
2022/03/05 10:34:50;;;;;;;22.87;13.43;;;;;;;6.06;52.97;95682.95;1781839;80;20987;-66
2022/03/05 10:37:20;;;;;;;21.33;13.93;;;;;;;6.05;52.98;95693.02;1781539;80;20991;-66
2022/03/05 10:39:49;;;;;;;21.00;12.47;;;;;;;5.84;52.92;95687.27;1784383;80;21023;-66
2022/03/05 10:42:23;;;;;;;22.17;12.43;;;;;;;5.72;52.78;95688.99;1787473;80;21003;-66
2022/03/05 10:45:11;;;;;;;21.90;12.93;;;;;;;5.48;51.92;95695.06;1787932;80;21041;-66
2022/03/05 10:47:41;;;;;;;23.43;14.53;;;;;;;5.34;53.37;95688.06;1787847;80;21029;-67
2022/03/05 10:50:28;;;;;;;24.17;14.43;;;;;;;5.26;55.27;95694.12;1787706;80;21025;-68
2022/03/05 10:53:00;;;;;;;24.93;15.73;;;;;;;5.14;55.23;95689.30;1787381;80;21544;-67
2022/03/05 10:55:31;;;;;;;23.40;14.63;;;;;;;5.32;56.90;95688.92;1787623;80;21468;-67
2022/03/05 10:58:13;;;;;;;23.53;14.93;;;;;;;5.67;55.74;95688.11;1786977;80;21054;-67
2022/03/05 11:00:39;;;;;;;23.40;14.87;;;;;;;5.62;53.70;95684.20;1787859;80;21050;-67
2022/03/05 11:03:05;;;;;;;24.23;15.07;;;;;;;5.48;54.65;95681.54;1787278;80;21504;-67
2022/03/05 11:05:33;;;;;;;22.83;14.10;;;;;;;5.25;54.83;95684.53;1787502;80;21368;-66
2022/03/05 11:08:00;;;;;;;22.10;13.23;;;;;;;4.97;55.19;95685.73;1787783;80;21014;-66
2022/03/05 11:10:29;;;;;;;23.90;12.40;;;;;;;4.83;55.78;95691.31;1787780;80;20986;-66
2022/03/05 11:12:59;;;;;;;25.23;14.93;;;;;;;4.63;55.07;95687.28;1787678;80;21015;-66
2022/03/05 11:15:27;;;;;;;18.60;12.43;;;;;;;4.54;55.54;95687.68;1787783;80;20978;-66
2022/03/05 11:17:54;;;;;;;18.77;12.07;;;;;;;4.42;54.90;95690.65;1787682;80;21014;-66
2022/03/05 11:20:21;;;;;;;22.83;13.43;;;;;;;4.39;55.25;95691.94;1787645;80;20978;-69
2022/03/05 11:22:52;;;;;;;23.40;13.70;;;;;;;4.22;55.59;95695.30;1787519;80;21003;-67
2022/03/05 11:25:22;;;;;;;21.93;12.23;;;;;;;4.22;56.24;95686.59;1787704;80;21010;-67
2022/03/05 11:28:12;;;;;;;22.37;13.60;;;;;;;4.05;57.90;95686.45;1787641;80;21061;-66
2022/03/05 11:30:44;;;;;;;21.37;13.67;;;;;;;4.00;56.26;95689.45;1787770;80;21453;-67